Terminal Aerodrome Forecast
Issued by NWS

Home | Current Version | Previous Version | Text Only | Print | Product List | Glossary On
Versions: 1 2 3 4 5 6 7 8 9 10 11 12 13
000
FTUS45 KRIW 290520
TAFCOD
TAF
KCOD 290520Z 2906/3006 25006KT P6SM SCT200
     FM292000 23012KT P6SM SCT100 SCT200
     FM300400 22007KT P6SM SCT080 BKN150
      AMD LTD TO CLD VIS AND WIND=

USA.gov is the U.S. government's official web portal to all federal, state and local government web resources and services.